BWA284 TBPB-TFFR
Flight info
| Callsign | BWA284 |
|---|---|
| Flight time | 1h 1m |
| Altitude | 16000 |
| Route | NOPOR DCT 1460N DCT BIRNO DCT SEKUN DCT LIDOS DCT VOLAB DCT CS12 |
| Aircraft | AT76/M-SDFGIRY/S |
Departure
| Time | 2026-05-03 22:47 |
|---|---|
| Airport | Grantley Adams International Airport (TBPB) |
Arrival
| Time | 2026-05-03 23:48 |
|---|---|
| Airport | Maryse Condé International Airport (TFFR) |
| Time | Latitude | Longitude | Altitude | Speed | Heading |
|---|---|---|---|---|---|
| 2026-05-03 22:18 | 13.07874 | -59.48818 | 173 ft | 0 kts | 345° |
| 2026-05-03 22:41 | 13.07875 | -59.48819 | 173 ft | 0 kts | 332° |
| 2026-05-03 22:41 | 13.07874 | -59.48824 | 173 ft | 1 kts | 265° |
| 2026-05-03 22:41 | 13.07846 | -59.48838 | 173 ft | 8 kts | 196° |
| 2026-05-03 22:42 | 13.07778 | -59.48859 | 173 ft | 12 kts | 197° |
| 2026-05-03 22:42 | 13.07708 | -59.48915 | 173 ft | 15 kts | 244° |
| 2026-05-03 22:42 | 13.07675 | -59.49035 | 173 ft | 20 kts | 255° |
| 2026-05-03 22:42 | 13.07638 | -59.49182 | 173 ft | 22 kts | 256° |
| 2026-05-03 22:43 | 13.07598 | -59.49342 | 173 ft | 24 kts | 255° |
| 2026-05-03 22:43 | 13.07559 | -59.49505 | 172 ft | 24 kts | 256° |
| 2026-05-03 22:43 | 13.07519 | -59.49668 | 173 ft | 23 kts | 255° |
| 2026-05-03 22:43 | 13.07480 | -59.49828 | 173 ft | 23 kts | 256° |
| 2026-05-03 22:44 | 13.07442 | -59.49982 | 173 ft | 22 kts | 255° |
| 2026-05-03 22:44 | 13.07408 | -59.50131 | 173 ft | 21 kts | 257° |
| 2026-05-03 22:44 | 13.07373 | -59.50267 | 173 ft | 19 kts | 255° |
| 2026-05-03 22:44 | 13.07336 | -59.50408 | 173 ft | 21 kts | 255° |
| 2026-05-03 22:45 | 13.07298 | -59.50559 | 173 ft | 22 kts | 255° |
| 2026-05-03 22:45 | 13.07269 | -59.50681 | 173 ft | 14 kts | 253° |
| 2026-05-03 22:45 | 13.07205 | -59.50722 | 173 ft | 10 kts | 167° |
| 2026-05-03 22:45 | 13.07146 | -59.50705 | 173 ft | 8 kts | 160° |
| 2026-05-03 22:46 | 13.07114 | -59.50664 | 173 ft | 10 kts | 101° |
| 2026-05-03 22:46 | 13.07153 | -59.50475 | 174 ft | 55 kts | 77° |
| 2026-05-03 22:46 | 13.07303 | -59.49860 | 173 ft | 119 kts | 75° |
| 2026-05-03 22:46 | 13.07517 | -59.48930 | 484 ft | 140 kts | 80° |
| 2026-05-03 22:47 | 13.07723 | -59.47910 | 893 ft | 152 kts | 77° |
| 2026-05-03 22:47 | 13.08028 | -59.46838 | 1376 ft | 161 kts | 75° |
| 2026-05-03 22:47 | 13.08347 | -59.45678 | 1861 ft | 175 kts | 76° |
| 2026-05-03 22:47 | 13.08666 | -59.44432 | 2336 ft | 186 kts | 77° |
| 2026-05-03 22:48 | 13.08984 | -59.43125 | 2833 ft | 194 kts | 77° |
| 2026-05-03 22:48 | 13.09325 | -59.41757 | 3338 ft | 201 kts | 77° |
| 2026-05-03 22:48 | 13.09793 | -59.40424 | 3820 ft | 204 kts | 56° |
| 2026-05-03 22:48 | 13.11011 | -59.39633 | 4319 ft | 217 kts | 15° |
| 2026-05-03 22:49 | 13.12523 | -59.39844 | 4810 ft | 228 kts | 336° |
| 2026-05-03 22:49 | 13.13862 | -59.40715 | 5226 ft | 233 kts | 327° |
| 2026-05-03 22:49 | 13.15191 | -59.41710 | 5646 ft | 239 kts | 326° |
| 2026-05-03 22:49 | 13.16539 | -59.42722 | 6061 ft | 243 kts | 326° |
| 2026-05-03 22:50 | 13.17925 | -59.43738 | 6471 ft | 245 kts | 328° |
| 2026-05-03 22:50 | 13.19349 | -59.44730 | 6868 ft | 247 kts | 329° |
| 2026-05-03 22:50 | 13.20769 | -59.45691 | 7235 ft | 248 kts | 329° |
| 2026-05-03 22:50 | 13.22214 | -59.46678 | 7650 ft | 249 kts | 329° |
| 2026-05-03 22:51 | 13.23665 | -59.47668 | 8055 ft | 249 kts | 329° |
| 2026-05-03 22:51 | 13.25111 | -59.48656 | 8469 ft | 249 kts | 330° |
| 2026-05-03 22:51 | 13.26542 | -59.49634 | 8885 ft | 250 kts | 330° |
| 2026-05-03 22:51 | 13.28002 | -59.50634 | 9315 ft | 251 kts | 330° |
| 2026-05-03 22:52 | 13.29461 | -59.51626 | 9749 ft | 252 kts | 330° |
| 2026-05-03 22:52 | 13.30905 | -59.52614 | 10135 ft | 252 kts | 330° |
| 2026-05-03 22:52 | 13.32367 | -59.53612 | 10530 ft | 252 kts | 330° |
| 2026-05-03 22:52 | 13.33838 | -59.54620 | 10817 ft | 257 kts | 330° |
| 2026-05-03 22:53 | 13.35330 | -59.55641 | 11049 ft | 263 kts | 329° |
| 2026-05-03 22:53 | 13.36879 | -59.56699 | 11286 ft | 267 kts | 329° |
| 2026-05-03 22:53 | 13.38425 | -59.57760 | 11520 ft | 270 kts | 329° |
| 2026-05-03 22:53 | 13.39990 | -59.58834 | 11767 ft | 272 kts | 329° |
| 2026-05-03 22:54 | 13.41577 | -59.59921 | 12008 ft | 273 kts | 329° |
| 2026-05-03 22:54 | 13.43152 | -59.60998 | 12248 ft | 274 kts | 329° |
| 2026-05-03 22:54 | 13.44754 | -59.62095 | 12498 ft | 275 kts | 329° |
| 2026-05-03 22:54 | 13.46333 | -59.63175 | 12743 ft | 275 kts | 329° |
| 2026-05-03 22:55 | 13.47936 | -59.64273 | 12993 ft | 275 kts | 329° |
| 2026-05-03 22:55 | 13.49511 | -59.65352 | 13242 ft | 275 kts | 328° |
| 2026-05-03 22:55 | 13.51107 | -59.66444 | 13492 ft | 275 kts | 328° |
| 2026-05-03 22:55 | 13.52721 | -59.67539 | 13655 ft | 279 kts | 328° |
| 2026-05-03 22:56 | 13.54349 | -59.68636 | 13781 ft | 282 kts | 329° |
| 2026-05-03 22:56 | 13.55998 | -59.69742 | 13890 ft | 284 kts | 329° |
| 2026-05-03 22:56 | 13.57660 | -59.70868 | 13998 ft | 286 kts | 328° |
| 2026-05-03 22:56 | 13.59317 | -59.72010 | 14118 ft | 287 kts | 328° |
| 2026-05-03 22:57 | 13.60965 | -59.73139 | 14225 ft | 287 kts | 328° |
| 2026-05-03 22:57 | 13.62637 | -59.74280 | 14342 ft | 288 kts | 328° |
| 2026-05-03 22:57 | 13.64297 | -59.75419 | 14457 ft | 288 kts | 327° |
| 2026-05-03 22:57 | 13.65975 | -59.76581 | 14570 ft | 288 kts | 327° |
| 2026-05-03 22:58 | 13.67649 | -59.77737 | 14687 ft | 288 kts | 328° |
| 2026-05-03 22:58 | 13.69311 | -59.78880 | 14801 ft | 289 kts | 328° |
| 2026-05-03 22:58 | 13.70963 | -59.80016 | 14919 ft | 289 kts | 328° |
| 2026-05-03 22:58 | 13.72635 | -59.81168 | 15034 ft | 288 kts | 328° |
| 2026-05-03 22:59 | 13.73747 | -59.81933 | 15111 ft | 288 kts | 328° |
| 2026-05-03 22:59 | 13.75404 | -59.83073 | 15230 ft | 288 kts | 328° |
| 2026-05-03 22:59 | 13.77633 | -59.84609 | 15387 ft | 288 kts | 328° |
| 2026-05-03 22:59 | 13.79296 | -59.85754 | 15501 ft | 288 kts | 328° |
| 2026-05-03 23:00 | 13.80393 | -59.86506 | 15581 ft | 288 kts | 328° |
| 2026-05-03 23:00 | 13.82613 | -59.88028 | 15742 ft | 287 kts | 328° |
| 2026-05-03 23:00 | 13.83721 | -59.88787 | 15822 ft | 287 kts | 327° |
| 2026-05-03 23:00 | 13.85392 | -59.89934 | 15920 ft | 288 kts | 327° |
| 2026-05-03 23:01 | 13.87060 | -59.91084 | 15976 ft | 290 kts | 327° |
| 2026-05-03 23:01 | 13.88739 | -59.92241 | 16000 ft | 292 kts | 327° |
| 2026-05-03 23:01 | 13.90439 | -59.93413 | 16013 ft | 294 kts | 327° |
| 2026-05-03 23:01 | 13.92139 | -59.94583 | 16019 ft | 296 kts | 327° |
| 2026-05-03 23:02 | 13.93865 | -59.95770 | 16021 ft | 298 kts | 327° |
| 2026-05-03 23:02 | 13.95600 | -59.96962 | 16026 ft | 299 kts | 327° |
| 2026-05-03 23:02 | 13.97314 | -59.98142 | 16027 ft | 300 kts | 327° |
| 2026-05-03 23:02 | 13.99062 | -59.99345 | 16023 ft | 300 kts | 327° |
| 2026-05-03 23:03 | 14.00788 | -60.00520 | 16025 ft | 300 kts | 329° |
| 2026-05-03 23:03 | 14.02597 | -60.01590 | 16026 ft | 299 kts | 333° |
| 2026-05-03 23:03 | 14.04438 | -60.02593 | 16029 ft | 300 kts | 334° |
| 2026-05-03 23:03 | 14.06264 | -60.03587 | 16034 ft | 300 kts | 333° |
| 2026-05-03 23:04 | 14.08101 | -60.04623 | 16032 ft | 301 kts | 332° |
| 2026-05-03 23:04 | 14.09932 | -60.05684 | 16030 ft | 301 kts | 332° |
| 2026-05-03 23:04 | 14.11760 | -60.06743 | 16031 ft | 301 kts | 332° |
| 2026-05-03 23:04 | 14.13574 | -60.07801 | 16026 ft | 301 kts | 331° |
| 2026-05-03 23:05 | 14.15397 | -60.08870 | 16030 ft | 301 kts | 331° |
| 2026-05-03 23:05 | 14.17225 | -60.09947 | 16026 ft | 301 kts | 331° |
| 2026-05-03 23:05 | 14.19043 | -60.10997 | 16026 ft | 301 kts | 332° |
| 2026-05-03 23:05 | 14.20875 | -60.12054 | 16021 ft | 301 kts | 332° |
| 2026-05-03 23:06 | 14.22708 | -60.13109 | 16025 ft | 301 kts | 332° |
| 2026-05-03 23:06 | 14.24521 | -60.14156 | 16025 ft | 301 kts | 332° |
| 2026-05-03 23:06 | 14.26364 | -60.15221 | 16025 ft | 301 kts | 332° |
| 2026-05-03 23:06 | 14.28190 | -60.16274 | 16024 ft | 301 kts | 332° |
| 2026-05-03 23:07 | 14.29991 | -60.17315 | 16027 ft | 301 kts | 332° |
| 2026-05-03 23:07 | 14.31835 | -60.18374 | 16026 ft | 301 kts | 332° |
| 2026-05-03 23:07 | 14.33649 | -60.19413 | 16028 ft | 301 kts | 332° |
| 2026-05-03 23:07 | 14.35484 | -60.20472 | 16030 ft | 301 kts | 332° |
| 2026-05-03 23:08 | 14.37311 | -60.21532 | 16030 ft | 301 kts | 332° |
| 2026-05-03 23:08 | 14.39125 | -60.22563 | 16029 ft | 300 kts | 332° |
| 2026-05-03 23:08 | 14.40973 | -60.23599 | 16029 ft | 301 kts | 332° |
| 2026-05-03 23:08 | 14.42816 | -60.24638 | 16029 ft | 301 kts | 332° |
| 2026-05-03 23:09 | 14.44649 | -60.25673 | 16029 ft | 301 kts | 332° |
| 2026-05-03 23:09 | 14.46466 | -60.26702 | 16029 ft | 301 kts | 332° |
| 2026-05-03 23:09 | 14.48299 | -60.27745 | 16029 ft | 301 kts | 332° |
| 2026-05-03 23:09 | 14.50142 | -60.28800 | 16032 ft | 300 kts | 332° |
| 2026-05-03 23:10 | 14.51948 | -60.29840 | 16032 ft | 301 kts | 332° |
| 2026-05-03 23:10 | 14.53785 | -60.30893 | 16031 ft | 300 kts | 332° |
| 2026-05-03 23:10 | 14.55626 | -60.31941 | 16030 ft | 300 kts | 332° |
| 2026-05-03 23:10 | 14.57448 | -60.32978 | 16032 ft | 300 kts | 332° |
| 2026-05-03 23:11 | 14.59290 | -60.34027 | 16030 ft | 300 kts | 332° |
| 2026-05-03 23:11 | 14.61101 | -60.35060 | 16033 ft | 300 kts | 332° |
| 2026-05-03 23:11 | 14.62941 | -60.36108 | 16030 ft | 300 kts | 332° |
| 2026-05-03 23:11 | 14.64745 | -60.37140 | 16032 ft | 300 kts | 332° |
| 2026-05-03 23:12 | 14.66559 | -60.38211 | 16032 ft | 299 kts | 328° |
| 2026-05-03 23:12 | 14.68257 | -60.39474 | 16032 ft | 300 kts | 323° |
| 2026-05-03 23:12 | 14.69887 | -60.40813 | 16031 ft | 300 kts | 322° |
| 2026-05-03 23:12 | 14.71530 | -60.42150 | 16029 ft | 300 kts | 323° |
| 2026-05-03 23:13 | 14.73202 | -60.43446 | 16030 ft | 300 kts | 324° |
| 2026-05-03 23:13 | 14.74868 | -60.44705 | 16031 ft | 300 kts | 324° |
| 2026-05-03 23:13 | 14.76545 | -60.45990 | 16030 ft | 300 kts | 324° |
| 2026-05-03 23:13 | 14.78233 | -60.47273 | 16031 ft | 300 kts | 324° |
| 2026-05-03 23:14 | 14.79895 | -60.48549 | 16030 ft | 300 kts | 324° |
| 2026-05-03 23:14 | 14.81578 | -60.49838 | 16034 ft | 300 kts | 324° |
| 2026-05-03 23:14 | 14.83258 | -60.51121 | 16033 ft | 300 kts | 324° |
| 2026-05-03 23:14 | 14.84923 | -60.52401 | 16035 ft | 300 kts | 324° |
| 2026-05-03 23:15 | 14.86605 | -60.53690 | 16035 ft | 300 kts | 324° |
| 2026-05-03 23:15 | 14.88288 | -60.54979 | 16038 ft | 300 kts | 324° |
| 2026-05-03 23:15 | 14.89953 | -60.56255 | 16038 ft | 300 kts | 324° |
| 2026-05-03 23:15 | 14.91642 | -60.57545 | 16040 ft | 300 kts | 324° |
| 2026-05-03 23:16 | 14.93318 | -60.58834 | 16040 ft | 300 kts | 324° |
| 2026-05-03 23:16 | 14.95003 | -60.60122 | 16039 ft | 300 kts | 324° |
| 2026-05-03 23:16 | 14.96657 | -60.61395 | 16036 ft | 300 kts | 324° |
| 2026-05-03 23:16 | 14.98330 | -60.62678 | 16039 ft | 300 kts | 324° |
| 2026-05-03 23:17 | 15.00014 | -60.63969 | 16043 ft | 300 kts | 324° |
| 2026-05-03 23:17 | 15.01678 | -60.65249 | 16042 ft | 300 kts | 324° |
| 2026-05-03 23:17 | 15.03378 | -60.66551 | 16041 ft | 300 kts | 324° |
| 2026-05-03 23:17 | 15.05037 | -60.67827 | 16044 ft | 300 kts | 324° |
| 2026-05-03 23:18 | 15.06712 | -60.69111 | 16044 ft | 300 kts | 324° |
| 2026-05-03 23:18 | 15.08388 | -60.70399 | 16044 ft | 300 kts | 324° |
| 2026-05-03 23:18 | 15.10049 | -60.71674 | 16044 ft | 300 kts | 324° |
| 2026-05-03 23:18 | 15.11722 | -60.72961 | 16044 ft | 299 kts | 324° |
| 2026-05-03 23:19 | 15.13405 | -60.74256 | 16045 ft | 299 kts | 324° |
| 2026-05-03 23:19 | 15.15067 | -60.75530 | 16047 ft | 299 kts | 324° |
| 2026-05-03 23:19 | 15.16749 | -60.76823 | 16045 ft | 299 kts | 324° |
| 2026-05-03 23:19 | 15.18429 | -60.78114 | 16047 ft | 299 kts | 324° |
| 2026-05-03 23:20 | 15.20090 | -60.79392 | 16046 ft | 300 kts | 324° |
| 2026-05-03 23:20 | 15.21766 | -60.80683 | 16048 ft | 300 kts | 324° |
| 2026-05-03 23:20 | 15.23454 | -60.81982 | 16049 ft | 300 kts | 324° |
| 2026-05-03 23:20 | 15.25108 | -60.83255 | 16046 ft | 300 kts | 324° |
| 2026-05-03 23:21 | 15.26777 | -60.84538 | 16045 ft | 300 kts | 324° |
| 2026-05-03 23:21 | 15.28443 | -60.85821 | 15907 ft | 291 kts | 324° |
| 2026-05-03 23:21 | 15.30040 | -60.87050 | 15687 ft | 285 kts | 324° |
| 2026-05-03 23:21 | 15.31623 | -60.88271 | 15450 ft | 280 kts | 324° |
| 2026-05-03 23:22 | 15.34737 | -60.90664 | 14895 ft | 278 kts | 325° |
| 2026-05-03 23:22 | 15.36276 | -60.91852 | 14622 ft | 277 kts | 324° |
| 2026-05-03 23:22 | 15.37828 | -60.93050 | 14344 ft | 277 kts | 325° |
| 2026-05-03 23:23 | 15.39365 | -60.94229 | 14054 ft | 278 kts | 325° |
| 2026-05-03 23:23 | 15.40930 | -60.95435 | 13724 ft | 277 kts | 324° |
| 2026-05-03 23:23 | 15.42390 | -60.96565 | 13367 ft | 252 kts | 325° |
| 2026-05-03 23:23 | 15.43749 | -60.97617 | 13014 ft | 235 kts | 326° |
| 2026-05-03 23:24 | 15.45029 | -60.98597 | 12664 ft | 223 kts | 326° |
| 2026-05-03 23:24 | 15.46250 | -60.99534 | 12313 ft | 214 kts | 326° |
| 2026-05-03 23:24 | 15.47415 | -61.00433 | 11982 ft | 208 kts | 326° |
| 2026-05-03 23:24 | 15.48570 | -61.01326 | 11645 ft | 206 kts | 325° |
| 2026-05-03 23:25 | 15.49711 | -61.02214 | 11303 ft | 204 kts | 326° |
| 2026-05-03 23:25 | 15.50857 | -61.03093 | 10984 ft | 204 kts | 326° |
| 2026-05-03 23:25 | 15.51995 | -61.03968 | 10659 ft | 203 kts | 326° |
| 2026-05-03 23:25 | 15.53114 | -61.04833 | 10341 ft | 202 kts | 326° |
| 2026-05-03 23:26 | 15.54244 | -61.05708 | 10027 ft | 202 kts | 326° |
| 2026-05-03 23:26 | 15.55355 | -61.06565 | 9682 ft | 200 kts | 326° |
| 2026-05-03 23:26 | 15.56473 | -61.07431 | 9330 ft | 199 kts | 326° |
| 2026-05-03 23:26 | 15.57508 | -61.08384 | 8989 ft | 199 kts | 313° |
| 2026-05-03 23:27 | 15.58374 | -61.09491 | 8649 ft | 200 kts | 309° |
| 2026-05-03 23:27 | 15.59220 | -61.10640 | 8296 ft | 198 kts | 309° |
| 2026-05-03 23:27 | 15.60048 | -61.11767 | 7974 ft | 198 kts | 309° |
| 2026-05-03 23:27 | 15.60898 | -61.12885 | 7639 ft | 195 kts | 313° |
| 2026-05-03 23:28 | 15.61920 | -61.13805 | 7293 ft | 192 kts | 327° |
| 2026-05-03 23:28 | 15.63004 | -61.14575 | 6987 ft | 190 kts | 329° |
| 2026-05-03 23:28 | 15.64101 | -61.15345 | 6661 ft | 189 kts | 329° |
| 2026-05-03 23:28 | 15.65199 | -61.16131 | 6323 ft | 197 kts | 328° |
| 2026-05-03 23:29 | 15.66342 | -61.16986 | 5991 ft | 211 kts | 326° |
| 2026-05-03 23:29 | 15.67556 | -61.17925 | 5651 ft | 221 kts | 326° |
| 2026-05-03 23:29 | 15.68804 | -61.18890 | 5317 ft | 217 kts | 326° |
| 2026-05-03 23:29 | 15.69957 | -61.19790 | 5051 ft | 203 kts | 326° |
| 2026-05-03 23:30 | 15.71059 | -61.20662 | 4783 ft | 199 kts | 326° |
| 2026-05-03 23:30 | 15.72167 | -61.21544 | 4635 ft | 203 kts | 326° |
| 2026-05-03 23:30 | 15.73294 | -61.22430 | 4520 ft | 205 kts | 326° |
| 2026-05-03 23:30 | 15.74441 | -61.23323 | 4430 ft | 205 kts | 327° |
| 2026-05-03 23:31 | 15.75589 | -61.24213 | 4329 ft | 205 kts | 327° |
| 2026-05-03 23:31 | 15.76726 | -61.25090 | 4227 ft | 205 kts | 326° |
| 2026-05-03 23:31 | 15.77852 | -61.25965 | 4125 ft | 192 kts | 326° |
| 2026-05-03 23:31 | 15.78872 | -61.26760 | 4022 ft | 180 kts | 327° |
| 2026-05-03 23:32 | 15.79876 | -61.27534 | 3914 ft | 179 kts | 327° |
| 2026-05-03 23:32 | 15.80892 | -61.28323 | 3812 ft | 185 kts | 327° |
| 2026-05-03 23:32 | 15.81940 | -61.29136 | 3723 ft | 190 kts | 327° |
| 2026-05-03 23:32 | 15.82995 | -61.29951 | 3632 ft | 193 kts | 327° |
| 2026-05-03 23:33 | 15.84081 | -61.30794 | 3532 ft | 195 kts | 327° |
| 2026-05-03 23:33 | 15.85167 | -61.31635 | 3439 ft | 197 kts | 327° |
| 2026-05-03 23:33 | 15.86280 | -61.32497 | 3347 ft | 199 kts | 327° |
| 2026-05-03 23:33 | 15.87383 | -61.33359 | 3251 ft | 200 kts | 327° |
| 2026-05-03 23:34 | 15.88504 | -61.34226 | 3136 ft | 200 kts | 327° |
| 2026-05-03 23:34 | 15.89624 | -61.35100 | 3048 ft | 200 kts | 328° |
| 2026-05-03 23:34 | 15.90732 | -61.35951 | 2967 ft | 200 kts | 327° |
| 2026-05-03 23:34 | 15.91858 | -61.36811 | 2900 ft | 200 kts | 327° |
| 2026-05-03 23:35 | 15.92971 | -61.37668 | 2823 ft | 200 kts | 327° |
| 2026-05-03 23:35 | 15.94095 | -61.38541 | 2737 ft | 200 kts | 327° |
| 2026-05-03 23:35 | 15.95197 | -61.39394 | 2674 ft | 199 kts | 327° |
| 2026-05-03 23:35 | 15.96312 | -61.40270 | 2611 ft | 199 kts | 327° |
| 2026-05-03 23:36 | 15.97405 | -61.41135 | 2518 ft | 199 kts | 328° |
| 2026-05-03 23:36 | 15.98520 | -61.41997 | 2442 ft | 199 kts | 328° |
| 2026-05-03 23:36 | 15.99633 | -61.42861 | 2366 ft | 199 kts | 328° |
| 2026-05-03 23:36 | 16.00739 | -61.43721 | 2297 ft | 198 kts | 327° |
| 2026-05-03 23:37 | 16.01833 | -61.44575 | 2253 ft | 198 kts | 326° |
| 2026-05-03 23:37 | 16.02938 | -61.45435 | 2155 ft | 198 kts | 327° |
| 2026-05-03 23:37 | 16.04032 | -61.46287 | 2108 ft | 197 kts | 328° |
| 2026-05-03 23:37 | 16.05134 | -61.47144 | 2071 ft | 194 kts | 328° |
| 2026-05-03 23:38 | 16.06187 | -61.47961 | 2065 ft | 187 kts | 327° |
| 2026-05-03 23:38 | 16.07227 | -61.48771 | 2060 ft | 186 kts | 327° |
| 2026-05-03 23:38 | 16.08277 | -61.49569 | 2051 ft | 185 kts | 327° |
| 2026-05-03 23:38 | 16.09317 | -61.50370 | 2049 ft | 185 kts | 327° |
| 2026-05-03 23:39 | 16.10331 | -61.51154 | 2041 ft | 183 kts | 328° |
| 2026-05-03 23:39 | 16.11352 | -61.51952 | 2046 ft | 181 kts | 327° |
| 2026-05-03 23:39 | 16.12345 | -61.52737 | 2052 ft | 180 kts | 327° |
| 2026-05-03 23:39 | 16.12571 | -61.52916 | 2053 ft | 180 kts | 327° |
| 2026-05-03 23:41 | 16.12647 | -61.52977 | 2048 ft | 180 kts | 327° |
| 2026-05-03 23:41 | 16.13650 | -61.53770 | 2028 ft | 180 kts | 327° |
| 2026-05-03 23:42 | 16.14647 | -61.54548 | 2037 ft | 178 kts | 328° |
| 2026-05-03 23:42 | 16.15637 | -61.55316 | 2052 ft | 178 kts | 328° |
| 2026-05-03 23:42 | 16.16635 | -61.56091 | 2053 ft | 179 kts | 328° |
| 2026-05-03 23:42 | 16.17400 | -61.56690 | 2056 ft | 179 kts | 328° |
| 2026-05-03 23:43 | 16.18405 | -61.57467 | 2072 ft | 177 kts | 327° |
| 2026-05-03 23:43 | 16.19374 | -61.58218 | 2075 ft | 173 kts | 327° |
| 2026-05-03 23:43 | 16.20326 | -61.58968 | 2052 ft | 170 kts | 328° |
| 2026-05-03 23:43 | 16.21243 | -61.59685 | 2048 ft | 167 kts | 328° |
| 2026-05-03 23:44 | 16.22190 | -61.60419 | 2020 ft | 166 kts | 328° |
| 2026-05-03 23:44 | 16.23120 | -61.61138 | 2007 ft | 166 kts | 328° |
| 2026-05-03 23:44 | 16.24051 | -61.61863 | 1994 ft | 167 kts | 327° |
| 2026-05-03 23:44 | 16.24669 | -61.62349 | 1987 ft | 168 kts | 328° |
| 2026-05-03 23:45 | 16.25919 | -61.63320 | 1955 ft | 169 kts | 328° |
| 2026-05-03 23:45 | 16.26549 | -61.63808 | 1938 ft | 169 kts | 328° |
| 2026-05-03 23:45 | 16.27925 | -61.64334 | 1911 ft | 156 kts | 15° |
| 2026-05-03 23:45 | 16.28527 | -61.63980 | 1896 ft | 148 kts | 53° |
| 2026-05-03 23:46 | 16.28667 | -61.62738 | 1856 ft | 123 kts | 105° |
| 2026-05-03 23:46 | 16.28537 | -61.62185 | 1833 ft | 116 kts | 104° |
| 2026-05-03 23:46 | 16.28342 | -61.61383 | 1808 ft | 113 kts | 103° |
| 2026-05-03 23:46 | 16.28109 | -61.60573 | 1821 ft | 118 kts | 105° |
| 2026-05-03 23:47 | 16.27829 | -61.59737 | 1730 ft | 127 kts | 106° |
| 2026-05-03 23:47 | 16.27536 | -61.58852 | 1521 ft | 131 kts | 105° |
| 2026-05-03 23:47 | 16.27296 | -61.57935 | 1274 ft | 133 kts | 99° |
| 2026-05-03 23:47 | 16.27110 | -61.57003 | 1042 ft | 128 kts | 96° |
| 2026-05-03 23:48 | 16.26988 | -61.56100 | 706 ft | 126 kts | 97° |
| 2026-05-03 23:48 | 16.26888 | -61.55189 | 314 ft | 125 kts | 96° |
| 2026-05-03 23:48 | 16.26745 | -61.54309 | 27 ft | 120 kts | 101° |
| 2026-05-03 23:48 | 16.26636 | -61.53760 | 19 ft | 21 kts | 101° |
| 2026-05-03 23:49 | 16.26631 | -61.53734 | 22 ft | 15 kts | 101° |
| 2026-05-03 23:49 | 16.26576 | -61.53439 | 24 ft | 55 kts | 101° |
| 2026-05-03 23:49 | 16.26511 | -61.53068 | 23 ft | 37 kts | 99° |
| 2026-05-03 23:49 | 16.26602 | -61.52978 | 25 ft | 18 kts | 13° |
| 2026-05-03 23:50 | 16.26713 | -61.52954 | 25 ft | 15 kts | 11° |
| 2026-05-03 23:50 | 16.26811 | -61.52933 | 27 ft | 14 kts | 13° |
| 2026-05-03 23:50 | 16.26847 | -61.52872 | 26 ft | 9 kts | 92° |
| 2026-05-03 23:50 | 16.26852 | -61.52828 | 29 ft | 5 kts | 43° |
| 2026-05-03 23:51 | 16.26899 | -61.52826 | 26 ft | 8 kts | 352° |
| 2026-05-03 23:51 | 16.26939 | -61.52821 | 28 ft | 3 kts | 7° |
| 2026-05-03 23:51 | 16.26942 | -61.52821 | 28 ft | 0 kts | 7° |